Pagrindinis puslapis
METAR-TAF:

METAR-TAF

Oro uostai :

Aviano, Italija

platuma: 46-02N, ilguma: 012-36E, Aukštis: 128 m

Dabartinis oras

Ataskaita buvo paskelbta 37 minutes, ne 18:55 UTC
Vėjas 4 kt iš Rytų/Šiaurės Rytų
Temperatūra 17°C
Drėgmė 55%
Slėgis 1023 hPa
Matomumas 10 km arba daugiau
Su prošvaistėmis ne aukštis 8000 ft

METAR: LIPA 191855Z 07004KT 9999 BKN080 17/08 Q1023 RMK BKN VIS MIN 9999 WIND THR05 /////KT WIND THR23 /////KT A3022 BLU

Laikas: 21:32 (19:32 UTC)

Prognozė

Ataskaita buvo paskelbta 2 valandos ir 32 minutes, ne 17:00 UTC
Prognozė galioja nuo 19 metu 18 UTC su 20 metu 03 UTC
Vėjas 8 kt iš Rytų/Šiaurės Rytų
Matomumas 10 km arba daugiau
Išsisklaidę debesys ne aukštis 5000 ft

TAF: LIPA 191700Z 1918/2003 06008KT 9999 SCT050

Orai ataskaitas ir orų prognozės (METAR, TAF).

turimą stotys yra geltonos ir raudonos taškus žemėlapyje.

Perkelti pele per norėdami pamatyti stoties vardą.

Tada spustelėkite, norėdami matyti oro stebėjimo ir prognozės.

Norėdami pakeisti žemėlapį: spustelėkite ant žalios mygtukų su juodo kryžiaus žemyn,; žalią mygtuką su brūkšneliu, jei norite nutolinti; arba žalių rodyklių gretimoms žemėlapius.


METAR-TAF: